createdAt,value
2023-01-01T00:00:00.428Z,1.70
2023-01-01T00:01:05.434Z,1.70
2023-01-01T00:02:00.399Z,1.70
2023-01-01T00:03:00.335Z,1.70
2023-01-01T00:04:00.474Z,1.70
2023-01-01T00:05:00.388Z,1.70
2023-01-01T00:06:08.791Z,1.70
2023-01-01T00:07:00.521Z,1.70
2023-01-01T00:08:04.616Z,1.70
2023-01-01T00:09:00.656Z,1.70
2023-01-01T00:10:00.349Z,1.70
2023-01-01T00:11:01.486Z,1.70
2023-01-01T00:12:00.333Z,1.70
2023-01-01T00:13:00.378Z,1.70
2023-01-01T00:14:00.431Z,1.70
2023-01-01T00:15:00.399Z,1.70
2023-01-01T00:16:04.762Z,1.70
2023-01-01T00:17:00.399Z,1.70
2023-01-01T00:18:00.412Z,1.70
2023-01-01T00:19:00.377Z,1.70
2023-01-01T00:20:01.098Z,1.70
2023-01-01T00:21:01.292Z,1.70
2023-01-01T00:22:09.981Z,1.70
2023-01-01T00:23:00.497Z,1.70
2023-01-01T00:24:00.426Z,1.70
2023-01-01T00:25:00.376Z,1.70
2023-01-01T00:26:01.023Z,1.70
2023-01-01T00:27:00.347Z,1.70
2023-01-01T00:28:00.393Z,1.70
2023-01-01T00:29:00.370Z,1.70
2023-01-01T00:30:00.480Z,2.90
2023-01-01T00:31:04.663Z,2.90
2023-01-01T00:32:00.536Z,2.90
2023-01-01T00:33:00.411Z,2.90
2023-01-01T00:34:00.377Z,2.90
2023-01-01T00:35:00.377Z,2.90
2023-01-01T00:36:10.264Z,2.90
2023-01-01T00:37:00.373Z,2.90
2023-01-01T00:38:00.357Z,2.90
2023-01-01T00:39:00.883Z,2.90
2023-01-01T00:40:00.443Z,2.90
2023-01-01T00:41:00.462Z,2.90
2023-01-01T00:42:00.412Z,2.90
2023-01-01T00:43:00.383Z,2.90
2023-01-01T00:44:00.492Z,2.90
2023-01-01T00:45:00.418Z,2.90
2023-01-01T00:46:00.972Z,2.90
2023-01-01T00:47:00.385Z,2.90
2023-01-01T00:48:00.391Z,2.90
2023-01-01T00:49:00.470Z,2.90
2023-01-01T00:50:00.460Z,2.90
2023-01-01T00:51:00.956Z,2.90
2023-01-01T00:52:00.473Z,2.90
2023-01-01T00:53:00.388Z,2.90
2023-01-01T00:54:00.385Z,2.90
2023-01-01T00:55:00.674Z,2.90
2023-01-01T00:56:00.436Z,2.90
2023-01-01T00:57:00.438Z,2.90
2023-01-01T00:58:00.429Z,2.90
2023-01-01T00:59:01.404Z,2.90
2023-01-01T01:00:00.433Z,2.60
2023-01-01T01:01:00.999Z,2.60
2023-01-01T01:02:00.629Z,2.60
2023-01-01T01:03:00.494Z,2.60
2023-01-01T01:04:01.780Z,2.60
2023-01-01T01:05:00.412Z,2.60
2023-01-01T01:06:01.375Z,2.60
2023-01-01T01:07:00.395Z,2.60
2023-01-01T01:08:00.451Z,2.60
2023-01-01T01:09:00.391Z,2.60
2023-01-01T01:10:00.413Z,2.60
2023-01-01T01:11:04.747Z,2.60
2023-01-01T01:12:17.789Z,2.60
2023-01-01T01:13:00.396Z,2.60
2023-01-01T01:14:00.521Z,2.60
2023-01-01T01:15:00.582Z,2.60
2023-01-01T01:16:00.520Z,2.60
2023-01-01T01:17:00.492Z,2.60
2023-01-01T01:18:00.436Z,2.60
2023-01-01T01:19:01.217Z,2.60
2023-01-01T01:20:00.431Z,2.60
2023-01-01T01:21:00.439Z,2.60
2023-01-01T01:22:00.402Z,2.60
2023-01-01T01:23:00.397Z,2.60
2023-01-01T01:24:01.368Z,2.60
2023-01-01T01:25:00.527Z,2.60
2023-01-01T01:26:10.262Z,2.60
2023-01-01T01:27:00.463Z,2.60
2023-01-01T01:28:00.411Z,2.60
2023-01-01T01:29:00.421Z,2.60
2023-01-01T01:30:00.356Z,2.30
2023-01-01T01:31:00.529Z,2.30
2023-01-01T01:32:00.352Z,2.30
2023-01-01T01:33:00.345Z,2.30
2023-01-01T01:34:00.852Z,2.30
2023-01-01T01:35:00.383Z,2.30
2023-01-01T01:36:00.698Z,2.30
2023-01-01T01:37:00.386Z,2.30
2023-01-01T01:38:00.430Z,2.30
2023-01-01T01:39:00.384Z,2.30
2023-01-01T01:40:00.402Z,2.30
2023-01-01T01:41:00.494Z,2.30
2023-01-01T01:42:00.499Z,2.30
2023-01-01T01:43:00.378Z,2.30
2023-01-01T01:44:01.491Z,2.30
2023-01-01T01:45:01.281Z,2.30
2023-01-01T01:46:05.496Z,2.30
2023-01-01T01:47:01.515Z,2.30
2023-01-01T01:48:00.410Z,2.30
2023-01-01T01:49:04.038Z,2.30
2023-01-01T01:50:02.636Z,2.30
2023-01-01T01:51:00.419Z,2.30
2023-01-01T01:52:00.862Z,2.30
2023-01-01T01:53:01.327Z,2.30
2023-01-01T01:54:02.171Z,2.30
2023-01-01T01:55:00.982Z,2.30
2023-01-01T01:56:02.364Z,2.30
2023-01-01T01:57:03.127Z,2.30
2023-01-01T01:58:00.824Z,2.30
2023-01-01T01:59:00.454Z,2.30
2023-01-01T02:00:03.716Z,2.90
2023-01-01T02:01:00.932Z,2.90
2023-01-01T02:02:00.809Z,2.90
2023-01-01T02:03:03.233Z,2.90
2023-01-01T02:04:00.843Z,2.90
2023-01-01T02:05:01.059Z,2.90
2023-01-01T02:06:01.075Z,2.90
2023-01-01T02:07:00.364Z,2.90
2023-01-01T02:08:03.016Z,2.90
2023-01-01T02:09:01.967Z,2.90
2023-01-01T02:10:00.584Z,2.90
2023-01-01T02:11:00.753Z,2.90
2023-01-01T02:12:00.447Z,2.90
2023-01-01T02:13:00.512Z,2.90
2023-01-01T02:14:01.330Z,2.90
2023-01-01T02:15:00.415Z,2.90
2023-01-01T02:16:05.528Z,2.90
2023-01-01T02:17:08.778Z,2.90
2023-01-01T02:18:01.384Z,2.90
2023-01-01T02:19:07.729Z,2.90
2023-01-01T02:20:00.322Z,2.90
2023-01-01T02:21:10.268Z,2.90
2023-01-01T02:22:01.338Z,2.90
2023-01-01T02:23:04.499Z,2.90
2023-01-01T02:24:10.247Z,2.90
2023-01-01T02:25:10.249Z,2.90
2023-01-01T02:26:09.906Z,2.90
2023-01-01T02:27:04.051Z,2.90
2023-01-01T02:28:08.965Z,2.90
2023-01-01T02:29:02.277Z,2.90
2023-01-01T02:30:02.270Z,2.60
2023-01-01T02:31:00.964Z,2.60
2023-01-01T02:32:04.559Z,2.60
2023-01-01T02:33:03.822Z,2.60
2023-01-01T02:34:02.700Z,2.60
2023-01-01T02:35:02.400Z,2.60
2023-01-01T02:36:02.285Z,2.60
2023-01-01T02:37:01.733Z,2.60
2023-01-01T02:38:10.029Z,2.60
2023-01-01T02:39:01.927Z,2.60
2023-01-01T02:40:00.631Z,2.60
2023-01-01T02:41:01.640Z,2.60
2023-01-01T02:42:01.792Z,2.60
2023-01-01T02:43:00.607Z,2.60
2023-01-01T02:45:00.601Z,2.60
2023-01-01T02:46:04.441Z,2.60
2023-01-01T02:47:09.090Z,2.60
2023-01-01T02:48:02.718Z,2.60
2023-01-01T02:49:06.176Z,2.60
2023-01-01T02:50:06.333Z,2.60
2023-01-01T02:51:03.745Z,2.60
2023-01-01T02:52:00.321Z,2.60
2023-01-01T02:53:10.256Z,2.60
2023-01-01T02:54:01.337Z,2.60
2023-01-01T02:55:10.272Z,2.60
2023-01-01T02:56:06.847Z,2.60
2023-01-01T02:57:07.242Z,2.60
2023-01-01T02:58:10.264Z,2.60
2023-01-01T02:59:08.913Z,2.60
2023-01-01T03:00:02.573Z,2.70
2023-01-01T03:01:10.358Z,2.70
2023-01-01T03:02:10.298Z,2.70
2023-01-01T03:03:07.918Z,2.70
2023-01-01T03:04:06.545Z,2.70
2023-01-01T03:05:00.312Z,2.70
2023-01-01T03:06:01.372Z,2.70
2023-01-01T03:07:00.311Z,2.70
2023-01-01T03:08:07.637Z,2.70
2023-01-01T03:09:10.270Z,2.70
2023-01-01T03:10:03.186Z,2.70
2023-01-01T03:11:00.333Z,2.70
2023-01-01T03:12:00.333Z,2.70
2023-01-01T03:13:07.803Z,2.70
2023-01-01T03:14:05.631Z,2.70
2023-01-01T03:15:05.327Z,2.70
2023-01-01T03:16:04.860Z,2.70
2023-01-01T03:17:04.719Z,2.70
2023-01-01T03:18:04.868Z,2.70
2023-01-01T03:19:00.333Z,2.70
2023-01-01T03:20:03.578Z,2.70
2023-01-01T03:21:02.526Z,2.70
2023-01-01T03:22:03.094Z,2.70
2023-01-01T03:23:05.512Z,2.70
2023-01-01T03:24:00.515Z,2.70
2023-01-01T03:25:06.318Z,2.70
2023-01-01T03:26:04.140Z,2.70
2023-01-01T03:27:03.051Z,2.70
2023-01-01T03:28:04.240Z,2.70
2023-01-01T03:29:01.010Z,2.70
2023-01-01T03:30:01.480Z,3.20
2023-01-01T03:31:00.581Z,3.20
2023-01-01T03:32:01.411Z,3.20
2023-01-01T03:33:04.453Z,3.20
2023-01-01T03:34:03.838Z,3.20
2023-01-01T03:35:00.865Z,3.20
2023-01-01T03:36:05.635Z,3.20
2023-01-01T03:37:03.284Z,3.20
2023-01-01T03:38:01.586Z,3.20
2023-01-01T03:39:04.819Z,3.20
2023-01-01T03:40:01.139Z,3.20
2023-01-01T03:41:03.168Z,3.20
2023-01-01T03:42:00.327Z,3.20
2023-01-01T03:43:10.259Z,3.20
2023-01-01T03:44:04.509Z,3.20
2023-01-01T03:45:04.459Z,3.20
2023-01-01T03:46:01.017Z,3.20
2023-01-01T03:47:00.863Z,3.20
2023-01-01T03:48:00.682Z,3.20
2023-01-01T03:49:04.110Z,3.20
2023-01-01T03:50:01.222Z,3.20
2023-01-01T03:51:10.263Z,3.20
2023-01-01T03:52:07.754Z,3.20
2023-01-01T03:53:10.276Z,3.20
2023-01-01T03:54:05.964Z,3.20
2023-01-01T03:55:05.384Z,3.20
2023-01-01T03:56:00.344Z,3.20
2023-01-01T03:57:05.198Z,3.20
2023-01-01T03:58:09.500Z,3.20
2023-01-01T03:59:06.365Z,3.20
2023-01-01T04:00:03.674Z,4.00
2023-01-01T04:01:03.596Z,4.00
2023-01-01T04:02:01.552Z,4.00
2023-01-01T04:03:05.073Z,4.00
2023-01-01T04:04:02.966Z,4.00
2023-01-01T04:05:02.181Z,4.00
2023-01-01T04:06:01.709Z,4.00
2023-01-01T04:07:14.302Z,4.00
2023-01-01T04:08:01.817Z,4.00
2023-01-01T04:09:02.003Z,4.00
2023-01-01T04:10:01.062Z,4.00
2023-01-01T04:11:02.978Z,4.00
2023-01-01T04:12:00.799Z,4.00
2023-01-01T04:13:12.765Z,4.00
2023-01-01T04:14:03.682Z,4.00
2023-01-01T04:15:00.357Z,4.00
2023-01-01T04:16:00.665Z,4.00
2023-01-01T04:17:07.575Z,4.00
2023-01-01T04:18:00.379Z,4.00
2023-01-01T04:19:00.345Z,4.00
2023-01-01T04:20:00.372Z,4.00
2023-01-01T04:21:00.372Z,4.00
2023-01-01T04:22:00.802Z,4.00
2023-01-01T04:23:00.816Z,4.00
2023-01-01T04:24:00.418Z,4.00
2023-01-01T04:25:00.527Z,4.00
2023-01-01T04:26:00.339Z,4.00
2023-01-01T04:27:00.374Z,4.00
2023-01-01T04:28:00.336Z,4.00
2023-01-01T04:29:00.362Z,4.00
2023-01-01T04:30:00.488Z,3.90
2023-01-01T04:32:00.332Z,3.90
2023-01-01T04:33:00.335Z,3.90
2023-01-01T04:34:00.458Z,3.90
2023-01-01T04:35:00.658Z,3.90
2023-01-01T04:36:02.210Z,3.90
2023-01-01T04:37:00.339Z,3.90
2023-01-01T04:38:00.333Z,3.90
2023-01-01T04:39:00.427Z,3.90
2023-01-01T04:40:00.459Z,3.90
2023-01-01T04:41:00.796Z,3.90
2023-01-01T04:42:00.325Z,3.90
2023-01-01T04:43:00.331Z,3.90
2023-01-01T04:44:00.340Z,3.90
2023-01-01T04:45:00.340Z,3.90
2023-01-01T04:46:01.826Z,3.90
2023-01-01T04:47:00.468Z,3.90
2023-01-01T04:48:04.155Z,3.90
2023-01-01T04:49:00.346Z,3.90
2023-01-01T04:50:00.348Z,3.90
2023-01-01T04:51:01.753Z,3.90
2023-01-01T04:52:00.372Z,3.90
2023-01-01T04:53:00.334Z,3.90
2023-01-01T04:54:00.361Z,3.90
2023-01-01T04:55:00.348Z,3.90
2023-01-01T04:56:03.631Z,3.90
2023-01-01T04:57:00.371Z,3.90
2023-01-01T04:58:00.347Z,3.90
2023-01-01T04:59:00.357Z,3.90
2023-01-01T05:00:00.357Z,4.50
2023-01-01T05:01:00.782Z,4.50
2023-01-01T05:02:00.671Z,4.50
2023-01-01T05:03:00.391Z,4.50
2023-01-01T05:04:00.645Z,4.50
2023-01-01T05:05:00.329Z,4.50
2023-01-01T05:06:02.422Z,4.50
2023-01-01T05:07:00.357Z,4.50
2023-01-01T05:08:00.378Z,4.50
2023-01-01T05:09:00.339Z,4.50
2023-01-01T05:10:00.334Z,4.50
2023-01-01T05:11:00.729Z,4.50
2023-01-01T05:12:00.330Z,4.50
2023-01-01T05:13:00.357Z,4.50
2023-01-01T05:14:00.815Z,4.50
2023-01-01T05:15:00.351Z,4.50
2023-01-01T05:16:02.623Z,4.50
2023-01-01T05:17:00.338Z,4.50
2023-01-01T05:18:00.359Z,4.50
2023-01-01T05:19:00.810Z,4.50
2023-01-01T05:20:00.359Z,4.50
2023-01-01T05:21:01.249Z,4.50
2023-01-01T05:22:03.962Z,4.50
2023-01-01T05:23:00.324Z,4.50
2023-01-01T05:24:01.649Z,4.50
2023-01-01T05:25:00.335Z,4.50
2023-01-01T05:26:06.905Z,4.50
2023-01-01T05:27:00.332Z,4.50
2023-01-01T05:28:00.335Z,4.50
2023-01-01T05:29:00.615Z,4.50
2023-01-01T05:30:00.441Z,3.80
2023-01-01T05:31:03.589Z,3.80
2023-01-01T05:32:00.395Z,3.80
2023-01-01T05:33:00.341Z,3.80
2023-01-01T05:35:00.327Z,3.80
2023-01-01T05:36:01.131Z,3.80
2023-01-01T05:37:00.354Z,3.80
2023-01-01T05:38:00.332Z,3.80
2023-01-01T05:39:00.351Z,3.80
2023-01-01T05:40:00.325Z,3.80
2023-01-01T05:41:04.970Z,3.80
2023-01-01T05:42:00.336Z,3.80
2023-01-01T05:43:00.355Z,3.80
2023-01-01T05:44:00.602Z,3.80
2023-01-01T05:45:00.570Z,3.80
2023-01-01T05:46:01.098Z,3.80
2023-01-01T05:47:00.338Z,3.80
2023-01-01T05:48:00.401Z,3.80
2023-01-01T05:49:00.349Z,3.80
2023-01-01T05:50:00.355Z,3.80
2023-01-01T05:51:01.519Z,3.80
2023-01-01T05:52:00.424Z,3.80
2023-01-01T05:53:00.331Z,3.80
2023-01-01T05:54:00.347Z,3.80
2023-01-01T05:55:00.338Z,3.80
2023-01-01T05:56:00.820Z,3.80
2023-01-01T05:57:00.326Z,3.80
2023-01-01T05:58:00.366Z,3.80
2023-01-01T05:59:00.707Z,3.80
2023-01-01T06:00:00.363Z,4.40
2023-01-01T06:01:08.384Z,4.40
2023-01-01T06:02:00.582Z,4.40
2023-01-01T06:03:00.382Z,4.40
2023-01-01T06:04:00.457Z,4.40
2023-01-01T06:05:00.342Z,4.40
2023-01-01T06:06:05.021Z,4.40
2023-01-01T06:07:00.342Z,4.40
2023-01-01T06:08:00.384Z,4.40
2023-01-01T06:09:01.356Z,4.40
2023-01-01T06:10:00.358Z,4.40
2023-01-01T06:11:01.635Z,4.40
2023-01-01T06:12:00.334Z,4.40
2023-01-01T06:13:00.343Z,4.40
2023-01-01T06:14:00.758Z,4.40
2023-01-01T06:15:00.326Z,4.40
2023-01-01T06:16:01.279Z,4.40
2023-01-01T06:17:00.483Z,4.40
2023-01-01T06:18:00.409Z,4.40
2023-01-01T06:19:00.402Z,4.40
2023-01-01T06:20:00.352Z,4.40
2023-01-01T06:21:06.576Z,4.40
2023-01-01T06:22:00.340Z,4.40
2023-01-01T06:23:00.343Z,4.40
2023-01-01T06:24:00.414Z,4.40
2023-01-01T06:25:00.355Z,4.40
2023-01-01T06:26:04.313Z,4.40
2023-01-01T06:27:00.344Z,4.40
2023-01-01T06:28:00.341Z,4.40
2023-01-01T06:29:00.865Z,4.40
2023-01-01T06:30:00.402Z,2.50
2023-01-01T06:31:01.330Z,2.50
2023-01-01T06:32:00.389Z,2.50
2023-01-01T06:33:00.351Z,2.50
2023-01-01T06:34:00.339Z,2.50
2023-01-01T06:35:00.401Z,2.50
2023-01-01T06:36:02.875Z,2.50
2023-01-01T06:37:06.544Z,2.50
2023-01-01T06:38:00.358Z,2.50
2023-01-01T06:39:00.399Z,2.50
2023-01-01T06:40:00.358Z,2.50
2023-01-01T06:41:01.595Z,2.50
2023-01-01T06:42:00.340Z,2.50
2023-01-01T06:43:00.333Z,2.50
2023-01-01T06:44:00.359Z,2.50
2023-01-01T06:45:00.340Z,2.50
2023-01-01T06:46:05.266Z,2.50
2023-01-01T06:47:02.068Z,2.50
2023-01-01T06:48:00.329Z,2.50
2023-01-01T06:49:01.704Z,2.50
2023-01-01T06:50:00.974Z,2.50
2023-01-01T06:51:04.824Z,2.50
2023-01-01T06:52:00.357Z,2.50
2023-01-01T06:53:00.337Z,2.50
2023-01-01T06:54:01.147Z,2.50
2023-01-01T06:55:00.326Z,2.50
2023-01-01T06:56:00.353Z,2.50
2023-01-01T06:57:00.406Z,2.50
2023-01-01T06:58:00.382Z,2.50
2023-01-01T06:59:00.655Z,2.50
2023-01-01T07:00:00.365Z,2.60
2023-01-01T07:01:08.339Z,2.60
2023-01-01T07:02:00.476Z,2.60
2023-01-01T07:03:00.471Z,2.60
2023-01-01T07:04:01.486Z,2.60
2023-01-01T07:05:00.346Z,2.60
2023-01-01T07:06:00.386Z,2.60
2023-01-01T07:07:00.331Z,2.60
2023-01-01T07:08:00.422Z,2.60
2023-01-01T07:09:00.381Z,2.60
2023-01-01T07:10:00.374Z,2.60
2023-01-01T07:11:00.367Z,2.60
2023-01-01T07:12:00.337Z,2.60
2023-01-01T07:13:00.394Z,2.60
2023-01-01T07:14:00.715Z,2.60
2023-01-01T07:15:00.332Z,2.60
2023-01-01T07:16:04.278Z,2.60
2023-01-01T07:17:00.387Z,2.60
2023-01-01T07:18:00.325Z,2.60
2023-01-01T07:19:00.375Z,2.60
2023-01-01T07:20:00.360Z,2.60
2023-01-01T07:21:01.840Z,2.60
2023-01-01T07:22:00.347Z,2.60
2023-01-01T07:23:00.387Z,2.60
2023-01-01T07:24:01.571Z,2.60
2023-01-01T07:25:00.332Z,2.60
2023-01-01T07:26:00.480Z,2.60
2023-01-01T07:27:00.338Z,2.60
2023-01-01T07:28:00.329Z,2.60
2023-01-01T07:29:06.900Z,2.60
2023-01-01T07:30:00.349Z,4.30
2023-01-01T07:31:00.516Z,4.30
2023-01-01T07:32:00.366Z,4.30
2023-01-01T07:33:00.332Z,4.30
2023-01-01T07:34:00.434Z,4.30
2023-01-01T07:35:00.336Z,4.30
2023-01-01T07:36:00.366Z,4.30
2023-01-01T07:37:00.332Z,4.30
2023-01-01T07:38:00.345Z,4.30
2023-01-01T07:39:00.378Z,4.30
2023-01-01T07:40:00.324Z,4.30
2023-01-01T07:41:00.359Z,4.30
2023-01-01T07:42:01.987Z,4.30
2023-01-01T07:43:00.353Z,4.30
2023-01-01T07:44:00.339Z,4.30
2023-01-01T07:45:00.397Z,4.30
2023-01-01T07:46:00.579Z,4.30
2023-01-01T07:47:01.298Z,4.30
2023-01-01T07:48:00.839Z,4.30
2023-01-01T07:49:00.414Z,4.30
2023-01-01T07:50:00.342Z,4.30
2023-01-01T07:51:00.338Z,4.30
2023-01-01T07:52:00.344Z,4.30
2023-01-01T07:53:00.350Z,4.30
2023-01-01T07:54:06.216Z,4.30
2023-01-01T07:55:00.343Z,4.30
2023-01-01T07:56:00.491Z,4.30
2023-01-01T07:57:00.335Z,4.30
2023-01-01T07:58:00.644Z,4.30
2023-01-01T07:59:00.333Z,4.30
2023-01-01T08:00:00.333Z,4.20
2023-01-01T08:01:00.536Z,4.20
2023-01-01T08:02:00.489Z,4.20
2023-01-01T08:03:00.536Z,4.20
2023-01-01T08:04:00.355Z,4.20
2023-01-01T08:05:00.336Z,4.20
2023-01-01T08:06:04.592Z,4.20
2023-01-01T08:07:00.394Z,4.20
2023-01-01T08:08:00.359Z,4.20
2023-01-01T08:09:00.494Z,4.20
2023-01-01T08:10:00.340Z,4.20
2023-01-01T08:11:03.894Z,4.20
2023-01-01T08:12:00.334Z,4.20
2023-01-01T08:13:00.660Z,4.20
2023-01-01T08:14:00.356Z,4.20
2023-01-01T08:15:00.379Z,4.20
2023-01-01T08:16:00.445Z,4.20
2023-01-01T08:17:00.348Z,4.20
2023-01-01T08:18:02.372Z,4.20
2023-01-01T08:19:00.347Z,4.20
2023-01-01T08:20:00.340Z,4.20
2023-01-01T08:21:00.734Z,4.20
2023-01-01T08:22:00.352Z,4.20
2023-01-01T08:23:06.642Z,4.20
2023-01-01T08:24:00.338Z,4.20
2023-01-01T08:25:00.335Z,4.20
2023-01-01T08:26:01.204Z,4.20
2023-01-01T08:27:00.325Z,4.20
2023-01-01T08:28:00.342Z,4.20
2023-01-01T08:29:03.051Z,4.20
2023-01-01T08:30:00.371Z,4.20
2023-01-01T08:31:00.476Z,4.20
2023-01-01T08:32:00.367Z,4.20
2023-01-01T08:33:00.325Z,4.20
2023-01-01T08:34:00.363Z,4.20
2023-01-01T08:35:00.339Z,4.20
2023-01-01T08:36:00.336Z,4.20
2023-01-01T08:37:00.424Z,4.20
2023-01-01T08:38:00.331Z,4.20
2023-01-01T08:39:00.348Z,4.20
2023-01-01T08:40:00.354Z,4.20
2023-01-01T08:41:00.348Z,4.20
2023-01-01T08:42:00.359Z,4.20
2023-01-01T08:43:00.393Z,4.20
2023-01-01T08:44:00.431Z,4.20
2023-01-01T08:45:00.398Z,4.20
2023-01-01T08:46:00.464Z,4.20
2023-01-01T08:47:00.475Z,4.20
2023-01-01T08:48:00.346Z,4.20
2023-01-01T08:49:00.369Z,4.20
2023-01-01T08:50:00.425Z,4.20
2023-01-01T08:51:00.390Z,4.20
2023-01-01T08:52:00.339Z,4.20
2023-01-01T08:53:00.365Z,4.20
2023-01-01T08:54:00.355Z,4.20
2023-01-01T08:55:00.352Z,4.20
2023-01-01T08:56:02.004Z,4.20
2023-01-01T08:57:00.334Z,4.20
2023-01-01T08:58:00.336Z,4.20
2023-01-01T08:59:04.263Z,4.20
2023-01-01T09:00:00.406Z,2.50
2023-01-01T09:01:00.705Z,2.50
2023-01-01T09:02:00.585Z,2.50
2023-01-01T09:03:00.520Z,2.50
2023-01-01T09:04:00.334Z,2.50
2023-01-01T09:05:00.343Z,2.50
2023-01-01T09:06:00.359Z,2.50
2023-01-01T09:07:00.451Z,2.50
2023-01-01T09:08:00.336Z,2.50
2023-01-01T09:09:00.354Z,2.50
2023-01-01T09:10:00.337Z,2.50
2023-01-01T09:11:01.684Z,2.50
2023-01-01T09:12:01.768Z,2.50
2023-01-01T09:13:00.334Z,2.50
2023-01-01T09:14:00.345Z,2.50
2023-01-01T09:15:00.338Z,2.50
2023-01-01T09:16:00.400Z,2.50
2023-01-01T09:17:01.663Z,2.50
2023-01-01T09:18:00.452Z,2.50
2023-01-01T09:19:00.356Z,2.50
2023-01-01T09:20:00.325Z,2.50
2023-01-01T09:21:00.344Z,2.50
2023-01-01T09:22:00.369Z,2.50
2023-01-01T09:23:05.660Z,2.50
2023-01-01T09:24:00.351Z,2.50
2023-01-01T09:25:00.351Z,2.50
2023-01-01T09:26:02.239Z,2.50
2023-01-01T09:27:00.368Z,2.50
2023-01-01T09:28:01.508Z,2.50
2023-01-01T09:29:00.320Z,2.50
2023-01-01T09:30:00.436Z,3.10
2023-01-01T09:31:00.343Z,3.10
2023-01-01T09:32:00.585Z,3.10
2023-01-01T09:33:01.029Z,3.10
2023-01-01T09:34:00.350Z,3.10
2023-01-01T09:35:00.360Z,3.10
2023-01-01T09:36:10.241Z,3.10
2023-01-01T09:37:00.354Z,3.10
2023-01-01T09:38:00.338Z,3.10
2023-01-01T09:39:00.358Z,3.10
2023-01-01T09:40:00.352Z,3.10
2023-01-01T09:41:00.407Z,3.10
2023-01-01T09:42:10.267Z,3.10
2023-01-01T09:43:10.261Z,3.10
2023-01-01T09:44:05.354Z,3.10
2023-01-01T09:45:10.242Z,3.10
2023-01-01T09:46:02.507Z,3.10
2023-01-01T09:47:02.245Z,3.10
2023-01-01T09:48:04.497Z,3.10
2023-01-01T09:49:02.015Z,3.10
2023-01-01T09:50:05.578Z,3.10
2023-01-01T09:51:03.517Z,3.10
2023-01-01T09:52:01.455Z,3.10
2023-01-01T09:53:03.574Z,3.10
2023-01-01T09:54:04.115Z,3.10
2023-01-01T09:55:02.210Z,3.10
2023-01-01T09:56:01.759Z,3.10
2023-01-01T09:57:01.904Z,3.10
2023-01-01T09:58:00.392Z,3.10
2023-01-01T09:59:00.410Z,3.10
2023-01-01T10:00:00.353Z,3.30
2023-01-01T10:01:10.294Z,3.30
2023-01-01T10:02:01.463Z,3.30
2023-01-01T10:03:10.037Z,3.30
2023-01-01T10:04:10.300Z,3.30
2023-01-01T10:05:00.360Z,3.30
2023-01-01T10:06:03.727Z,3.30
2023-01-01T10:07:07.828Z,3.30
2023-01-01T10:08:07.195Z,3.30
2023-01-01T10:09:03.601Z,3.30
2023-01-01T10:10:07.806Z,3.30
2023-01-01T10:11:07.727Z,3.30
2023-01-01T10:12:06.668Z,3.30
2023-01-01T10:13:10.253Z,3.30
2023-01-01T10:14:00.831Z,3.30
2023-01-01T10:15:08.592Z,3.30
2023-01-01T10:16:00.343Z,3.30
2023-01-01T10:17:01.776Z,3.30
2023-01-01T10:18:03.350Z,3.30
2023-01-01T10:19:10.251Z,3.30
2023-01-01T10:20:02.307Z,3.30
2023-01-01T10:21:10.246Z,3.30
2023-01-01T10:22:04.785Z,3.30
2023-01-01T10:23:02.588Z,3.30
2023-01-01T10:24:00.337Z,3.30
2023-01-01T10:25:05.228Z,3.30
2023-01-01T10:26:05.314Z,3.30
2023-01-01T10:27:02.301Z,3.30
2023-01-01T10:28:04.523Z,3.30
2023-01-01T10:29:05.983Z,3.30
2023-01-01T10:30:04.184Z,4.10
2023-01-01T10:31:10.255Z,4.10
2023-01-01T10:32:05.134Z,4.10
2023-01-01T10:33:00.451Z,4.10
2023-01-01T10:34:05.932Z,4.10
2023-01-01T10:35:01.851Z,4.10
2023-01-01T10:36:00.501Z,4.10
2023-01-01T10:37:01.456Z,4.10
2023-01-01T10:38:01.359Z,4.10
2023-01-01T10:39:00.423Z,4.10
2023-01-01T10:40:02.847Z,4.10
2023-01-01T10:41:13.637Z,4.10
2023-01-01T10:42:01.884Z,4.10
2023-01-01T10:43:00.638Z,4.10
2023-01-01T10:44:00.479Z,4.10
2023-01-01T10:45:00.628Z,4.10
2023-01-01T10:46:01.312Z,4.10
2023-01-01T10:47:08.475Z,4.10
2023-01-01T10:48:08.124Z,4.10
2023-01-01T10:49:04.060Z,4.10
2023-01-01T10:50:02.019Z,4.10
2023-01-01T10:51:00.356Z,4.10
2023-01-01T10:52:00.386Z,4.10
2023-01-01T10:53:00.340Z,4.10
2023-01-01T10:54:00.443Z,4.10
2023-01-01T10:55:00.539Z,4.10
2023-01-01T10:56:03.697Z,4.10
2023-01-01T10:57:10.244Z,4.10
2023-01-01T10:58:01.820Z,4.10
2023-01-01T10:59:00.337Z,4.10
2023-01-01T11:00:09.442Z,4.90
2023-01-01T11:01:01.169Z,4.90
2023-01-01T11:02:10.471Z,4.90
2023-01-01T11:03:10.324Z,4.90
2023-01-01T11:04:01.570Z,4.90
2023-01-01T11:05:11.355Z,4.90
2023-01-01T11:06:01.371Z,4.90
2023-01-01T11:07:05.341Z,4.90
2023-01-01T11:08:00.360Z,4.90
2023-01-01T11:09:02.936Z,4.90
2023-01-01T11:10:04.340Z,4.90
2023-01-01T11:11:02.045Z,4.90
2023-01-01T11:12:09.462Z,4.90
2023-01-01T11:13:05.134Z,4.90
2023-01-01T11:14:01.467Z,4.90
2023-01-01T11:15:00.476Z,4.90
2023-01-01T11:16:00.384Z,4.90
2023-01-01T11:17:00.631Z,4.90
2023-01-01T11:18:02.440Z,4.90
2023-01-01T11:19:01.845Z,4.90
2023-01-01T11:20:02.492Z,4.90
2023-01-01T11:21:01.850Z,4.90
2023-01-01T11:22:00.392Z,4.90
2023-01-01T11:23:10.261Z,4.90
2023-01-01T11:24:10.267Z,4.90
2023-01-01T11:25:00.851Z,4.90
2023-01-01T11:26:10.248Z,4.90
2023-01-01T11:27:10.246Z,4.90
2023-01-01T11:28:10.251Z,4.90
2023-01-01T11:29:04.084Z,4.90
2023-01-01T11:30:10.238Z,4.70
2023-01-01T11:31:04.661Z,4.70
2023-01-01T11:32:00.426Z,4.70
2023-01-01T11:33:01.876Z,4.70
2023-01-01T11:34:01.459Z,4.70
2023-01-01T11:35:03.533Z,4.70
2023-01-01T11:36:00.767Z,4.70
2023-01-01T11:37:10.261Z,4.70
2023-01-01T11:38:01.889Z,4.70
2023-01-01T11:39:03.587Z,4.70
2023-01-01T11:40:01.461Z,4.70
2023-01-01T11:41:02.523Z,4.70
2023-01-01T11:42:00.380Z,4.70
2023-01-01T11:43:02.160Z,4.70
2023-01-01T11:44:00.388Z,4.70
2023-01-01T11:45:10.261Z,4.70
2023-01-01T11:46:05.455Z,4.70
2023-01-01T11:47:00.742Z,4.70
2023-01-01T11:48:02.567Z,4.70
2023-01-01T11:49:00.575Z,4.70
2023-01-01T11:50:10.245Z,4.70
2023-01-01T11:51:01.898Z,4.70
2023-01-01T11:52:10.260Z,4.70
2023-01-01T11:53:10.252Z,4.70
2023-01-01T11:54:10.247Z,4.70
2023-01-01T11:55:02.383Z,4.70
2023-01-01T11:56:01.392Z,4.70
2023-01-01T11:57:04.305Z,4.70
2023-01-01T11:58:00.320Z,4.70
2023-01-01T11:59:03.853Z,4.70
2023-01-01T12:00:01.962Z,5.80
2023-01-01T12:01:03.359Z,5.80
2023-01-01T12:02:02.333Z,5.80
2023-01-01T12:03:10.281Z,5.80
2023-01-01T12:04:06.186Z,5.80
2023-01-01T12:05:07.468Z,5.80
2023-01-01T12:06:10.260Z,5.80
2023-01-01T12:07:03.563Z,5.80
2023-01-01T12:08:02.226Z,5.80
2023-01-01T12:09:14.599Z,5.80
2023-01-01T12:10:03.758Z,5.80
2023-01-01T12:11:10.240Z,5.80
2023-01-01T12:12:04.834Z,5.80
2023-01-01T12:13:04.424Z,5.80
2023-01-01T12:14:07.837Z,5.80
2023-01-01T12:15:02.318Z,5.80
2023-01-01T12:16:10.305Z,5.80
2023-01-01T12:17:02.769Z,5.80
2023-01-01T12:18:05.275Z,5.80
2023-01-01T12:19:04.355Z,5.80
2023-01-01T12:20:03.718Z,5.80
2023-01-01T12:21:00.331Z,5.80
2023-01-01T12:22:00.477Z,5.80
2023-01-01T12:23:00.473Z,5.80
2023-01-01T12:24:00.412Z,5.80
2023-01-01T12:25:01.697Z,5.80
2023-01-01T12:26:00.330Z,5.80
2023-01-01T12:27:10.362Z,5.80
2023-01-01T12:28:03.626Z,5.80
2023-01-01T12:29:10.247Z,5.80
2023-01-01T12:30:03.812Z,4.30
2023-01-01T12:31:00.360Z,4.30
2023-01-01T12:32:06.021Z,4.30
2023-01-01T12:33:07.292Z,4.30
2023-01-01T12:34:10.234Z,4.30
2023-01-01T12:35:10.249Z,4.30
2023-01-01T12:36:07.742Z,4.30
2023-01-01T12:37:10.271Z,4.30
2023-01-01T12:38:07.832Z,4.30
2023-01-01T12:39:03.586Z,4.30
2023-01-01T12:40:00.321Z,4.30
2023-01-01T12:41:10.254Z,4.30
2023-01-01T12:42:10.257Z,4.30
2023-01-01T12:43:09.857Z,4.30
2023-01-01T12:44:01.346Z,4.30
2023-01-01T12:45:01.328Z,4.30
2023-01-01T12:46:10.291Z,4.30
2023-01-01T12:47:01.331Z,4.30
2023-01-01T12:48:00.367Z,4.30
2023-01-01T12:49:10.261Z,4.30
2023-01-01T12:50:00.349Z,4.30
2023-01-01T12:51:10.033Z,4.30
2023-01-01T12:52:00.334Z,4.30
2023-01-01T12:53:07.387Z,4.30
2023-01-01T12:54:10.251Z,4.30
2023-01-01T12:55:10.277Z,4.30
2023-01-01T12:56:07.757Z,4.30
2023-01-01T12:57:00.333Z,4.30
2023-01-01T12:58:10.252Z,4.30
2023-01-01T12:59:05.505Z,4.30
2023-01-01T13:00:02.702Z,5.00
2023-01-01T13:01:07.847Z,5.00
2023-01-01T13:02:02.516Z,5.00
2023-01-01T13:03:05.671Z,5.00
2023-01-01T13:04:06.121Z,5.00
2023-01-01T13:05:03.791Z,5.00
2023-01-01T13:06:01.584Z,5.00
2023-01-01T13:07:01.199Z,5.00
2023-01-01T13:08:02.189Z,5.00
2023-01-01T13:09:05.857Z,5.00
2023-01-01T13:10:05.394Z,5.00
2023-01-01T13:11:00.348Z,5.00
2023-01-01T13:12:10.268Z,5.00
2023-01-01T13:13:00.863Z,5.00
2023-01-01T13:14:00.596Z,5.00
2023-01-01T13:15:10.241Z,5.00
2023-01-01T13:16:00.498Z,5.00
2023-01-01T13:17:00.350Z,5.00
2023-01-01T13:18:02.012Z,5.00
2023-01-01T13:19:02.809Z,5.00
2023-01-01T13:20:10.266Z,5.00
2023-01-01T13:21:01.380Z,5.00